Flight Track Log - Related Links

Times and Time Zones

All times are in EDT time to prevent confusion due to time zone crossing. See the TAP56 flight status page for this flight to view local times or setup timezone preferences in your user account.


Time Position Orientation Groundspeed Altitude Reporting Facility
EDT Latitude Longitude Course Direction KTS MPH feet Rate Location/Type
Sun 10:02:00 PM -17.2254 -42.5775 29° Northeast  Level Estimated
Sun 10:03:00 PM -17.1157 -42.5151 29° Northeast  Level Estimated
Sun 10:04:00 PM -17.0060 -42.4529 28° Northeast  Level Estimated
Sun 10:05:00 PM -16.8962 -42.3907 28° Northeast  Level Estimated
Sun 10:06:00 PM -16.7865 -42.3285 28° Northeast  Level Estimated
Sun 10:07:00 PM -16.6767 -42.2665 28° Northeast  Level Estimated
Sun 10:08:00 PM -16.5669 -42.2045 28° Northeast  Level Estimated
Sun 10:09:00 PM -16.4571 -42.1426 28° Northeast  Level Estimated
Sun 10:10:00 PM -16.3472 -42.0808 28° Northeast  Level Estimated
Sun 10:11:00 PM -16.2374 -42.0190 28° Northeast  Level Estimated
Sun 10:12:00 PM -16.1275 -41.9573 28° Northeast  Level Estimated
Sun 10:13:00 PM -16.0176 -41.8956 28° Northeast  Level Estimated
Sun 10:14:00 PM -15.9077 -41.8341 28° Northeast  Level Estimated
Sun 10:15:00 PM -15.7978 -41.7726 28° Northeast  Level Estimated
Sun 10:16:00 PM -15.6879 -41.7112 28° Northeast  Level Estimated
Sun 10:17:00 PM -15.5779 -41.6498 28° Northeast  Level Estimated
Sun 10:18:00 PM -15.4679 -41.5885 28° Northeast  Level Estimated
Sun 10:19:00 PM -15.3580 -41.5272 28° Northeast  Level Estimated
Sun 10:20:00 PM -15.2479 -41.4661 28° Northeast  Level Estimated
Sun 10:21:00 PM -15.1379 -41.4050 28° Northeast  Level Estimated
Sun 10:22:00 PM -15.0279 -41.3439 28° Northeast  Level Estimated
Sun 10:23:00 PM -14.9178 -41.2829 28° Northeast  Level Estimated
Sun 10:24:00 PM -14.8077 -41.2220 28° Northeast  Level Estimated
Sun 10:25:00 PM -14.6977 -41.1612 28° Northeast  Level Estimated
Sun 10:26:00 PM -14.5876 -41.1003 28° Northeast  Level Estimated
Sun 10:27:00 PM -14.4774 -41.0396 28° Northeast  Level Estimated
Sun 10:28:00 PM -14.3673 -40.9789 28° Northeast  Level Estimated
Sun 10:29:00 PM -14.2571 -40.9183 28° Northeast  Level Estimated
Sun 10:30:00 PM -14.1470 -40.8577 28° Northeast  Level Estimated
Sun 10:31:00 PM -14.0368 -40.7972 28° Northeast  Level Estimated
Sun 10:32:00 PM -13.9266 -40.7368 28° Northeast  Level Estimated
Sun 10:33:00 PM -13.8164 -40.6764 28° Northeast  Level Estimated
Sun 10:34:00 PM -13.7062 -40.6161 28° Northeast  Level Estimated
Sun 10:35:00 PM -13.5959 -40.5558 28° Northeast  Level Estimated
Sun 10:36:00 PM -13.4857 -40.4956 28° Northeast  Level Estimated
Sun 10:37:00 PM -13.3754 -40.4355 28° Northeast  Level Estimated
Sun 10:38:00 PM -13.2651 -40.3754 28° Northeast  Level Estimated
Sun 10:39:00 PM -13.1548 -40.3153 28° Northeast  Level Estimated
Sun 10:40:00 PM -13.0445 -40.2553 28° Northeast  Level Estimated
Sun 10:41:00 PM -12.9342 -40.1954 28° Northeast  Level Estimated
Sun 10:42:00 PM -12.8238 -40.1355 28° Northeast  Level Estimated
Sun 10:43:00 PM -12.7135 -40.0757 28° Northeast  Level Estimated
Sun 10:44:00 PM -12.6031 -40.0159 28° Northeast  Level Estimated
Sun 10:45:00 PM -12.4927 -39.9562 28° Northeast  Level Estimated
Sun 10:46:00 PM -12.3823 -39.8965 28° Northeast  Level Estimated
Sun 10:47:00 PM -12.2719 -39.8368 28° Northeast  Level Estimated
Sun 10:48:00 PM -12.1615 -39.7773 28° Northeast  Level Estimated
Sun 10:49:00 PM -12.0511 -39.7177 28° Northeast  Level Estimated
Sun 10:50:00 PM -11.9406 -39.6582 28° Northeast  Level Estimated
Sun 10:51:00 PM -11.8302 -39.5988 28° Northeast  Level Estimated
Sun 10:52:00 PM -11.7197 -39.5394 28° Northeast  Level Estimated
Sun 10:53:00 PM -11.6092 -39.4801 28° Northeast  Level Estimated
Sun 10:54:00 PM -11.4987 -39.4208 28° Northeast  Level Estimated
Sun 10:55:00 PM -11.3882 -39.3616 28° Northeast  Level Estimated
Sun 10:56:00 PM -11.2777 -39.3024 28° Northeast  Level Estimated
Sun 10:57:00 PM -11.1672 -39.2432 28° Northeast  Level Estimated
Sun 10:58:00 PM -11.0566 -39.1841 28° Northeast  Level Estimated
Sun 10:59:00 PM -10.9461 -39.1250 28° Northeast  Level Estimated
Sun 11:00:00 PM -10.8355 -39.0660 28° Northeast  Level Estimated
Sun 11:01:00 PM -10.7250 -39.0071 28° Northeast  Level Estimated
Sun 11:02:00 PM -10.6144 -38.9481 28° Northeast  Level Estimated
Sun 11:03:00 PM -10.5038 -38.8892 28° Northeast  Level Estimated
Sun 11:04:00 PM -10.3932 -38.8304 28° Northeast  Level Estimated
Sun 11:05:00 PM -10.2825 -38.7716 28° Northeast  Level Estimated
Sun 11:06:00 PM -10.1719 -38.7128 28° Northeast  Level Estimated
Sun 11:07:00 PM -10.0613 -38.6541 28° Northeast  Level Estimated
Sun 11:08:00 PM -9.9506 -38.5954 28° Northeast  Level Estimated
Sun 11:09:00 PM -9.8400 -38.5368 28° Northeast  Level Estimated
Sun 11:10:00 PM -9.7293 -38.4782 28° Northeast  Level Estimated
Sun 11:11:00 PM -9.6186 -38.4196 28° Northeast  Level Estimated
Sun 11:12:00 PM -9.5079 -38.3611 28° Northeast  Level Estimated
Sun 11:13:00 PM -9.3972 -38.3026 28° Northeast  Level Estimated
Sun 11:14:00 PM -9.2865 -38.2441 28° Northeast  Level Estimated
Sun 11:15:00 PM -9.1758 -38.1857 28° Northeast  Level Estimated
Sun 11:16:00 PM -9.0651 -38.1273 28° Northeast  Level Estimated
Sun 11:17:00 PM -8.9543 -38.0690 27° Northeast  Level Estimated
Sun 11:18:00 PM -8.8436 -38.0107 27° Northeast  Level Estimated
Sun 11:19:00 PM -8.7328 -37.9524 27° Northeast  Level Estimated
Sun 11:20:00 PM -8.6221 -37.8942 27° Northeast  Level Estimated
Sun 11:21:00 PM -8.5113 -37.8360 27° Northeast  Level Estimated
Sun 11:22:00 PM -8.4005 -37.7778 27° Northeast  Level Estimated
Sun 11:23:00 PM -8.2897 -37.7197 27° Northeast  Level Estimated
Sun 11:24:00 PM -8.1789 -37.6616 27° Northeast  Level Estimated
Sun 11:25:00 PM -8.0681 -37.6035 27° Northeast  Level Estimated
Sun 11:26:00 PM -7.9573 -37.5455 27° Northeast  Level Estimated
Sun 11:27:00 PM -7.8465 -37.4875 27° Northeast  Level Estimated
Sun 11:28:00 PM -7.7356 -37.4295 27° Northeast  Level Estimated
Sun 11:29:00 PM -7.6248 -37.3715 27° Northeast  Level Estimated
Sun 11:30:00 PM -7.5139 -37.3136 27° Northeast  Level Estimated
Sun 11:31:00 PM -7.4031 -37.2557 27° Northeast  Level Estimated
Sun 11:32:00 PM -7.2922 -37.1979 27° Northeast  Level Estimated
Sun 11:33:00 PM -7.1814 -37.1400 27° Northeast  Level Estimated
Sun 11:34:00 PM -7.0705 -37.0822 27° Northeast  Level Estimated
Sun 11:35:00 PM -6.9596 -37.0245 27° Northeast  Level Estimated
Sun 11:36:00 PM -6.8487 -36.9667 27° Northeast  Level Estimated
Sun 11:37:00 PM -6.7378 -36.9090 27° Northeast  Level Estimated
Sun 11:38:00 PM -6.6269 -36.8513 27° Northeast  Level Estimated
Sun 11:39:00 PM -6.5160 -36.7936 27° Northeast  Level Estimated
Sun 11:40:00 PM -6.4051 -36.7360 27° Northeast  Level Estimated
Sun 11:41:00 PM -6.2942 -36.6784 27° Northeast  Level Estimated
Sun 11:42:00 PM -6.1832 -36.6208 27° Northeast  Level Estimated
Sun 11:43:00 PM -6.0723 -36.5632 27° Northeast  Level Estimated
Sun 11:44:00 PM -5.9613 -36.5057 27° Northeast  Level Estimated
Sun 11:45:00 PM -5.8504 -36.4482 27° Northeast  Level Estimated
Sun 11:46:00 PM -5.7394 -36.3907 27° Northeast  Level Estimated
Sun 11:47:00 PM -5.6285 -36.3332 27° Northeast  Level Estimated
Sun 11:48:00 PM -5.5175 -36.2757 27° Northeast  Level Estimated
Sun 11:49:00 PM -5.4065 -36.2183 27° Northeast  Level Estimated
Sun 11:50:00 PM -5.2956 -36.1609 27° Northeast  Level Estimated
Sun 11:51:00 PM -5.1846 -36.1035 27° Northeast  Level Estimated
Sun 11:52:00 PM -5.0736 -36.0461 27° Northeast  Level Estimated
Sun 11:53:00 PM -4.9626 -35.9888 27° Northeast  Level Estimated
Sun 11:54:00 PM -4.8516 -35.9314 27° Northeast  Level Estimated
Sun 11:55:00 PM -4.7406 -35.8741 27° Northeast  Level Estimated
Sun 11:56:00 PM -4.6296 -35.8168 27° Northeast  Level Estimated
Sun 11:57:00 PM -4.5186 -35.7596 27° Northeast  Level Estimated
Sun 11:58:00 PM -4.4076 -35.7023 27° Northeast  Level Estimated
Sun 11:59:00 PM -4.2965 -35.6451 27° Northeast  Level Estimated
Mon 12:00:00 AM -4.1855 -35.5878 27° Northeast  Level Estimated
Mon 12:01:00 AM -4.0745 -35.5306 27° Northeast  Level Estimated
Mon 12:02:00 AM -3.9635 -35.4734 27° Northeast  Level Estimated
Mon 12:03:00 AM -3.8524 -35.4163 27° Northeast  Level Estimated
Mon 12:04:00 AM -3.7414 -35.3591 27° Northeast  Level Estimated
Mon 12:05:00 AM -3.6304 -35.3019 27° Northeast  Level Estimated
Mon 12:06:00 AM -3.5193 -35.2448 27° Northeast  Level Estimated
Mon 12:07:00 AM -3.4083 -35.1877 27° Northeast  Level Estimated
Mon 12:08:00 AM -3.2972 -35.1306 27° Northeast  Level Estimated
Mon 12:09:00 AM -3.1861 -35.0735 27° Northeast  Level Estimated
Mon 12:10:00 AM -3.0751 -35.0164 27° Northeast  Level Estimated
Mon 12:11:00 AM -2.9640 -34.9594 27° Northeast  Level Estimated
Mon 12:12:00 AM -2.8530 -34.9023 27° Northeast  Level Estimated
Mon 12:13:00 AM -2.7419 -34.8452 27° Northeast  Level Estimated
Mon 12:14:00 AM -2.6308 -34.7882 27° Northeast  Level Estimated
Mon 12:15:00 AM -2.5197 -34.7312 27° Northeast  Level Estimated
Mon 12:16:00 AM -2.4087 -34.6741 27° Northeast  Level Estimated
Mon 12:17:00 AM -2.2976 -34.6171 27° Northeast  Level Estimated
Mon 12:18:00 AM -2.1865 -34.5601 27° Northeast  Level Estimated
Mon 12:19:00 AM -2.0754 -34.5032 27° Northeast  Level Estimated
Mon 12:20:00 AM -1.9643 -34.4462 27° Northeast  Level Estimated
Mon 12:21:00 AM -1.8532 -34.3892 27° Northeast  Level Estimated
Mon 12:22:00 AM -1.7421 -34.3322 27° Northeast  Level Estimated
Mon 12:23:00 AM -1.6311 -34.2753 27° Northeast  Level Estimated
Mon 12:24:00 AM -1.5200 -34.2183 27° Northeast  Level Estimated
Mon 12:25:00 AM -1.4089 -34.1614 27° Northeast  Level Estimated
Mon 12:26:00 AM -1.2978 -34.1044 27° Northeast  Level Estimated
Mon 12:27:00 AM -1.1867 -34.0475 27° Northeast  Level Estimated
Mon 12:28:00 AM -1.0756 -33.9906 27° Northeast  Level Estimated
Mon 12:29:00 AM -0.9645 -33.9336 27° Northeast  Level Estimated
Mon 12:30:00 AM -0.8534 -33.8767 27° Northeast  Level Estimated
Mon 12:31:00 AM -0.7423 -33.8198 27° Northeast  Level Estimated
Mon 12:32:00 AM -0.6312 -33.7629 27° Northeast  Level Estimated
Mon 12:33:00 AM -0.5201 -33.7059 27° Northeast  Level Estimated
Mon 12:34:00 AM -0.4090 -33.6490 27° Northeast  Level Estimated
Mon 12:35:00 AM -0.2979 -33.5921 27° Northeast  Level Estimated
Mon 12:36:00 AM -0.1868 -33.5352 27° Northeast  Level Estimated
Mon 12:37:00 AM -0.0757 -33.4783 27° Northeast  Level Estimated
Mon 12:38:00 AM 0.0354 -33.4214 27° Northeast  Level Estimated
Mon 12:39:00 AM 0.1465 -33.3645 27° Northeast  Level Estimated
Mon 12:40:00 AM 0.2576 -33.3076 27° Northeast  Level Estimated
Mon 12:41:00 AM 0.3687 -33.2506 27° Northeast  Level Estimated
Mon 12:42:00 AM 0.4798 -33.1937 27° Northeast  Level Estimated
Mon 12:43:00 AM 0.5909 -33.1368 27° Northeast  Level Estimated
Mon 12:44:00 AM 0.7020 -33.0799 27° Northeast  Level Estimated
Mon 12:45:00 AM 0.8131 -33.0230 27° Northeast  Level Estimated
Mon 12:46:00 AM 0.9242 -32.9661 27° Northeast  Level Estimated
Mon 12:47:00 AM 1.0353 -32.9091 27° Northeast  Level Estimated
Mon 12:48:00 AM 1.1464 -32.8522 27° Northeast  Level Estimated
Mon 12:49:00 AM 1.2575 -32.7953 27° Northeast  Level Estimated
Mon 12:50:00 AM 1.3686 -32.7383 27° Northeast  Level Estimated
Mon 12:51:00 AM 1.4797 -32.6814 27° Northeast  Level Estimated
Mon 12:52:00 AM 1.5908 -32.6244 27° Northeast  Level Estimated
Mon 12:53:00 AM 1.7019 -32.5675 27° Northeast  Level Estimated
Mon 12:54:00 AM 1.8130 -32.5105 27° Northeast  Level Estimated
Mon 12:55:00 AM 1.9241 -32.4535 27° Northeast  Level Estimated
Mon 12:56:00 AM 2.0352 -32.3965 27° Northeast  Level Estimated
Mon 12:57:00 AM 2.1463 -32.3396 27° Northeast  Level Estimated
Mon 12:58:00 AM 2.2573 -32.2826 27° Northeast  Level Estimated
Mon 12:59:00 AM 2.3684 -32.2256 27° Northeast  Level Estimated
Mon 01:00:00 AM 2.4795 -32.1685 27° Northeast  Level Estimated
Mon 01:01:00 AM 2.5906 -32.1115 27° Northeast  Level Estimated
Mon 01:02:00 AM 2.7016 -32.0545 27° Northeast  Level Estimated
Mon 01:03:00 AM 2.8127 -31.9974 27° Northeast  Level Estimated
Mon 01:04:00 AM 2.9238 -31.9404 27° Northeast  Level Estimated
Mon 01:05:00 AM 3.0348 -31.8833 27° Northeast  Level Estimated
Mon 01:06:00 AM 3.1459 -31.8263 27° Northeast  Level Estimated
Mon 01:07:00 AM 3.2570 -31.7692 27° Northeast  Level Estimated
Mon 01:08:00 AM 3.3680 -31.7121 27° Northeast  Level Estimated
Mon 01:09:00 AM 3.4791 -31.6549 27° Northeast  Level Estimated
Mon 01:10:00 AM 3.5901 -31.5978 27° Northeast  Level Estimated
Mon 01:11:00 AM 3.7012 -31.5407 27° Northeast  Level Estimated
Mon 01:12:00 AM 3.8122 -31.4835 27° Northeast  Level Estimated
Mon 01:13:00 AM 3.9233 -31.4263 27° Northeast  Level Estimated
Mon 01:14:00 AM 4.0343 -31.3692 27° Northeast  Level Estimated
Mon 01:15:00 AM 4.1453 -31.3120 27° Northeast  Level Estimated
Mon 01:16:00 AM 4.2564 -31.2547 27° Northeast  Level Estimated
Mon 01:17:00 AM 4.3674 -31.1975 27° Northeast  Level Estimated
Mon 01:18:00 AM 4.4784 -31.1402 27° Northeast  Level Estimated
Mon 01:19:00 AM 4.5894 -31.0830 27° Northeast  Level Estimated
Mon 01:20:00 AM 4.7004 -31.0257 27° Northeast  Level Estimated
Mon 01:21:00 AM 4.8114 -30.9684 27° Northeast  Level Estimated
Mon 01:22:00 AM 4.9224 -30.9111 27° Northeast  Level Estimated
Mon 01:23:00 AM 5.0334 -30.8537 27° Northeast  Level Estimated
Mon 01:24:00 AM 5.1444 -30.7964 27° Northeast  Level Estimated
Mon 01:25:00 AM 5.2554 -30.7390 27° Northeast  Level Estimated
Mon 01:26:00 AM 5.3664 -30.6816 27° Northeast  Level Estimated
Mon 01:27:00 AM 5.4773 -30.6241 27° Northeast  Level Estimated
Mon 01:28:00 AM 5.5883 -30.5667 27° Northeast  Level Estimated
Mon 01:29:00 AM 5.6993 -30.5092 27° Northeast  Level Estimated
Mon 01:30:00 AM 5.8102 -30.4517 27° Northeast  Level Estimated
Mon 01:31:00 AM 5.9212 -30.3942 27° Northeast  Level Estimated
Mon 01:32:00 AM 6.0321 -30.3367 27° Northeast  Level Estimated
Mon 01:33:00 AM 6.1430 -30.2791 27° Northeast  Level Estimated
Mon 01:34:00 AM 6.2540 -30.2215 27° Northeast  Level Estimated
Mon 01:35:00 AM 6.3649 -30.1639 27° Northeast  Level Estimated
Mon 01:36:00 AM 6.4758 -30.1063 27° Northeast  Level Estimated
Mon 01:37:00 AM 6.5867 -30.0487 27° Northeast  Level Estimated
Mon 01:38:00 AM 6.6976 -29.9910 27° Northeast  Level Estimated
Mon 01:39:00 AM 6.8085 -29.9333 27° Northeast  Level Estimated
Mon 01:40:00 AM 6.9194 -29.8755 27° Northeast  Level Estimated
Mon 01:41:00 AM 7.0303 -29.8178 27° Northeast  Level Estimated
Mon 01:42:00 AM 7.1412 -29.7600 27° Northeast  Level Estimated
Mon 01:43:00 AM 7.2521 -29.7022 27° Northeast  Level Estimated
Mon 01:44:00 AM 7.3629 -29.6443 27° Northeast  Level Estimated
Mon 01:45:00 AM 7.4738 -29.5864 27° Northeast  Level Estimated
Mon 01:46:00 AM 7.5846 -29.5285 27° Northeast  Level Estimated
Mon 01:47:00 AM 7.6955 -29.4706 27° Northeast  Level Estimated
Mon 01:48:00 AM 7.8063 -29.4126 27° Northeast  Level Estimated
Mon 01:49:00 AM 7.9171 -29.3546 27° Northeast  Level Estimated
Mon 01:50:00 AM 8.0280 -29.2966 27° Northeast  Level Estimated
Mon 01:51:00 AM 8.1388 -29.2385 27° Northeast  Level Estimated
Mon 01:52:00 AM 8.2496 -29.1804 27° Northeast  Level Estimated
Mon 01:53:00 AM 8.3604 -29.1223 27° Northeast  Level Estimated
Mon 01:54:00 AM 8.4711 -29.0641 27° Northeast  Level Estimated
Mon 01:55:00 AM 8.5819 -29.0060 27° Northeast  Level Estimated
Mon 01:56:00 AM 8.6927 -28.9477 27° Northeast  Level Estimated
Mon 01:57:00 AM 8.8034 -28.8895 27° Northeast  Level Estimated
Mon 01:58:00 AM 8.9142 -28.8312 27° Northeast  Level Estimated
Mon 01:59:00 AM 9.0249 -28.7729 27° Northeast  Level Estimated
Mon 02:00:00 AM 9.1357 -28.7145 27° Northeast  Level Estimated
Mon 02:01:00 AM 9.2464 -28.6561 28° Northeast  Level Estimated
Mon 02:02:00 AM 9.3571 -28.5976 28° Northeast  Level Estimated
Mon 02:03:00 AM 9.4678 -28.5392 28° Northeast  Level Estimated
Mon 02:04:00 AM 9.5785 -28.4806 28° Northeast  Level Estimated
Mon 02:05:00 AM 9.6892 -28.4221 28° Northeast  Level Estimated
Mon 02:06:00 AM 9.7998 -28.3635 28° Northeast  Level Estimated
Mon 02:07:00 AM 9.9105 -28.3049 28° Northeast  Level Estimated
Mon 02:08:00 AM 10.0211 -28.2462 28° Northeast  Level Estimated
Mon 02:09:00 AM 10.1318 -28.1875 28° Northeast  Level Estimated
Mon 02:10:00 AM 10.2424 -28.1287 28° Northeast  Level Estimated
Mon 02:11:00 AM 10.3530 -28.0700 28° Northeast  Level Estimated
Mon 02:12:00 AM 10.4636 -28.0111 28° Northeast  Level Estimated
Mon 02:13:00 AM 10.5743 -27.9523 28° Northeast  Level Estimated
Mon 02:14:00 AM 10.6848 -27.8933 28° Northeast  Level Estimated
Mon 02:15:00 AM 10.7954 -27.8344 28° Northeast  Level Estimated
Mon 02:16:00 AM 10.9060 -27.7754 28° Northeast  Level Estimated
Mon 02:17:00 AM 11.0166 -27.7163 28° Northeast  Level Estimated
Mon 02:18:00 AM 11.1271 -27.6572 28° Northeast  Level Estimated
Mon 02:19:00 AM 11.2376 -27.5981 28° Northeast  Level Estimated
Mon 02:20:00 AM 11.3481 -27.5389 28° Northeast  Level Estimated
Mon 02:21:00 AM 11.4586 -27.4797 28° Northeast  Level Estimated
Mon 02:22:00 AM 11.5691 -27.4204 28° Northeast  Level Estimated
Mon 02:23:00 AM 11.6796 -27.3611 28° Northeast  Level Estimated
Mon 02:24:00 AM 11.7901 -27.3017 28° Northeast  Level Estimated
Mon 02:25:00 AM 11.9006 -27.2423 28° Northeast  Level Estimated
Mon 02:26:00 AM 12.0110 -27.1829 28° Northeast  Level Estimated
Mon 02:27:00 AM 12.1215 -27.1234 28° Northeast  Level Estimated
Mon 02:28:00 AM 12.2319 -27.0638 28° Northeast  Level Estimated
Mon 02:29:00 AM 12.3423 -27.0042 28° Northeast  Level Estimated
Mon 02:30:00 AM 12.4527 -26.9445 28° Northeast  Level Estimated
Mon 02:31:00 AM 12.5631 -26.8848 28° Northeast  Level Estimated
Mon 02:32:00 AM 12.6734 -26.8251 28° Northeast  Level Estimated
Mon 02:33:00 AM 12.7838 -26.7652 28° Northeast  Level Estimated
Mon 02:34:00 AM 12.8941 -26.7054 28° Northeast  Level Estimated
Mon 02:35:00 AM 13.0045 -26.6454 28° Northeast  Level Estimated
Mon 02:36:00 AM 13.1148 -26.5855 28° Northeast  Level Estimated
Mon 02:37:00 AM 13.2251 -26.5254 28° Northeast  Level Estimated
Mon 02:38:00 AM 13.3354 -26.4654 28° Northeast  Level Estimated
Mon 02:39:00 AM 13.4457 -26.4052 28° Northeast  Level Estimated
Mon 02:40:00 AM 13.5559 -26.3450 28° Northeast  Level Estimated
Mon 02:41:00 AM 13.6662 -26.2848 28° Northeast  Level Estimated
Mon 02:42:00 AM 13.7764 -26.2245 28° Northeast  Level Estimated
Mon 02:43:00 AM 13.8866 -26.1641 28° Northeast  Level Estimated
Mon 02:44:00 AM 13.9968 -26.1037 28° Northeast  Level Estimated
Mon 02:45:00 AM 14.1070 -26.0432 28° Northeast  Level Estimated
Mon 02:46:00 AM 14.2172 -25.9827 28° Northeast  Level Estimated
Mon 02:47:00 AM 14.3273 -25.9221 28° Northeast  Level Estimated
Mon 02:48:00 AM 14.4375 -25.8614 28° Northeast  Level Estimated
Mon 02:49:00 AM 14.5476 -25.8007 28° Northeast  Level Estimated
Mon 02:50:00 AM 14.6577 -25.7400 28° Northeast  Level Estimated
Mon 02:51:00 AM 14.7678 -25.6791 28° Northeast  Level Estimated
Mon 02:52:00 AM 14.8779 -25.6182 28° Northeast  Level Estimated
Mon 02:53:00 AM 14.9880 -25.5573 28° Northeast  Level Estimated
Mon 02:54:00 AM 15.0980 -25.4962 28° Northeast  Level Estimated
Mon 02:55:00 AM 15.2080 -25.4352 28° Northeast  Level Estimated
Mon 02:56:00 AM 15.3180 -25.3740 28° Northeast  Level Estimated
Mon 02:57:00 AM 15.4280 -25.3128 28° Northeast  Level Estimated
Mon 02:58:00 AM 15.5380 -25.2515 28° Northeast  Level Estimated
Mon 02:59:00 AM 15.6480 -25.1902 28° Northeast  Level Estimated
Mon 03:00:00 AM 15.7579 -25.1288 28° Northeast  Level Estimated
Mon 03:01:00 AM 15.8679 -25.0673 28° Northeast  Level Estimated
Mon 03:02:00 AM 15.9778 -25.0057 28° Northeast  Level Estimated
Mon 03:03:00 AM 16.0877 -24.9441 28° Northeast  Level Estimated
Mon 03:04:00 AM 16.1975 -24.8825 28° Northeast  Level Estimated
Mon 03:05:00 AM 16.3074 -24.8207 28° Northeast  Level Estimated
Mon 03:06:00 AM 16.4172 -24.7589 28° Northeast  Level Estimated
Mon 03:07:00 AM 16.5271 -24.6970 28° Northeast  Level Estimated
Mon 03:08:00 AM 16.6369 -24.6350 28° Northeast  Level Estimated
Mon 03:09:00 AM 16.7467 -24.5730 28° Northeast  Level Estimated
Mon 03:10:00 AM 16.8564 -24.5109 28° Northeast  Level Estimated
Mon 03:11:00 AM 16.9662 -24.4487 28° Northeast  Level Estimated
Mon 03:12:00 AM 17.0759 -24.3865 28° Northeast  Level Estimated
Mon 03:13:00 AM 17.1856 -24.3242 28° Northeast  Level Estimated
Mon 03:14:00 AM 17.2953 -24.2618 29° Northeast  Level Estimated
Mon 03:15:00 AM 17.4050 -24.1993 29° Northeast  Level Estimated
Mon 03:16:00 AM 17.5146 -24.1368 29° Northeast  Level Estimated
Mon 03:17:00 AM 17.6243 -24.0742 29° Northeast  Level Estimated
Mon 03:18:00 AM 17.7339 -24.0115 29° Northeast  Level Estimated
Mon 03:19:00 AM 17.8435 -23.9487 29° Northeast  Level Estimated
Mon 03:20:00 AM 17.9530 -23.8858 29° Northeast  Level Estimated
Mon 03:21:00 AM 18.0626 -23.8229 29° Northeast  Level Estimated
Mon 03:22:00 AM 18.1721 -23.7599 29° Northeast  Level Estimated
Mon 03:23:00 AM 18.2816 -23.6968 29° Northeast  Level Estimated
Mon 03:24:00 AM 18.3911 -23.6337 29° Northeast  Level Estimated
Mon 03:25:00 AM 18.5006 -23.5704 29° Northeast  Level Estimated
Mon 03:26:00 AM 18.6100 -23.5071 29° Northeast  Level Estimated
Mon 03:27:00 AM 18.7194 -23.4437 29° Northeast  Level Estimated
Mon 03:28:00 AM 18.8289 -23.3802 29° Northeast  Level Estimated
Mon 03:29:00 AM 18.9382 -23.3166 29° Northeast  Level Estimated
Mon 03:30:00 AM 19.0476 -23.2530 29° Northeast  Level Estimated
Mon 03:31:00 AM 19.1569 -23.1893 29° Northeast  Level Estimated
Mon 03:32:00 AM 19.2663 -23.1254 29° Northeast  Level Estimated
Mon 03:33:00 AM 19.3756 -23.0615 29° Northeast  Level Estimated
Mon 03:34:00 AM 19.4848 -22.9975 29° Northeast  Level Estimated
Mon 03:35:00 AM 19.5941 -22.9335 29° Northeast  Level Estimated
Mon 03:36:00 AM 19.7033 -22.8693 29° Northeast  Level Estimated
Mon 03:37:00 AM 19.8125 -22.8050 29° Northeast  Level Estimated
Mon 03:38:00 AM 19.9217 -22.7407 29° Northeast  Level Estimated
Mon 03:39:00 AM 20.0309 -22.6763 29° Northeast  Level Estimated
Mon 03:40:00 AM 20.1400 -22.6117 29° Northeast  Level Estimated
Mon 03:41:00 AM 20.2491 -22.5471 29° Northeast  Level Estimated
Mon 03:42:00 AM 20.3582 -22.4824 29° Northeast  Level Estimated
Mon 03:43:00 AM 20.4673 -22.4176 29° Northeast  Level Estimated
Mon 03:44:00 AM 20.5763 -22.3528 29° Northeast  Level Estimated
Mon 03:45:00 AM 20.6854 -22.2878 29° Northeast  Level Estimated
Mon 03:46:00 AM 20.7943 -22.2227 29° Northeast  Level Estimated
Mon 03:47:00 AM 20.9033 -22.1575 29° Northeast  Level Estimated
Mon 03:48:00 AM 21.0123 -22.0923 29° Northeast  Level Estimated
Mon 03:49:00 AM 21.1212 -22.0269 29° Northeast  Level Estimated
Mon 03:50:00 AM 21.2301 -21.9615 29° Northeast  Level Estimated
Mon 03:51:00 AM 21.3389 -21.8959 29° Northeast  Level Estimated
Mon 03:52:00 AM 21.4478 -21.8303 29° Northeast  Level Estimated
Mon 03:53:00 AM 21.5566 -21.7645 29° Northeast  Level Estimated
Mon 03:54:00 AM 21.6654 -21.6987 29° Northeast  Level Estimated
Mon 03:55:00 AM 21.7742 -21.6327 29° Northeast  Level Estimated
Mon 03:56:00 AM 21.8829 -21.5667 29° Northeast  Level Estimated
Mon 03:57:00 AM 21.9916 -21.5006 29° Northeast  Level Estimated
Mon 03:58:00 AM 22.1003 -21.4343 29° Northeast  Level Estimated
Mon 03:59:00 AM 22.2090 -21.3680 29° Northeast  Level Estimated
Mon 04:00:00 AM 22.3176 -21.3015 30° Northeast  Level Estimated
Mon 04:01:00 AM 22.4262 -21.2350 30° Northeast  Level Estimated
Mon 04:02:00 AM 22.5348 -21.1683 30° Northeast  Level Estimated
Mon 04:03:00 AM 22.6433 -21.1015 30° Northeast  Level Estimated
Mon 04:04:00 AM 22.7519 -21.0347 30° Northeast  Level Estimated
Mon 04:05:00 AM 22.8604 -20.9677 30° Northeast  Level Estimated
Mon 04:06:00 AM 22.9688 -20.9006 30° Northeast  Level Estimated
Mon 04:07:00 AM 23.0773 -20.8334 30° Northeast  Level Estimated
Mon 04:08:00 AM 23.1857 -20.7661 30° Northeast  Level Estimated
Mon 04:09:00 AM 23.2941 -20.6987 30° Northeast  Level Estimated
Mon 04:10:00 AM 23.4024 -20.6312 30° Northeast  Level Estimated
Mon 04:11:00 AM 23.5107 -20.5636 30° Northeast  Level Estimated
Mon 04:12:00 AM 23.6190 -20.4958 30° Northeast  Level Estimated
Mon 04:13:00 AM 23.7273 -20.4280 30° Northeast  Level Estimated
Mon 04:14:00 AM 23.8356 -20.3600 30° Northeast  Level Estimated
Mon 04:15:00 AM 23.9438 -20.2920 30° Northeast  Level Estimated
Mon 04:16:00 AM 24.0519 -20.2238 30° Northeast  Level Estimated
Mon 04:17:00 AM 24.1601 -20.1555 30° Northeast  Level Estimated
Mon 04:18:00 AM 24.2682 -20.0870 30° Northeast  Level Estimated
Mon 04:19:00 AM 24.3763 -20.0185 30° Northeast  Level Estimated
Mon 04:20:00 AM 24.4844 -19.9498 30° Northeast  Level Estimated
Mon 04:21:00 AM 24.5924 -19.8811 30° Northeast  Level Estimated
Mon 04:22:00 AM 24.7004 -19.8122 30° Northeast  Level Estimated
Mon 04:23:00 AM 24.8083 -19.7432 30° Northeast  Level Estimated
Mon 04:24:00 AM 24.9163 -19.6740 30° Northeast  Level Estimated
Mon 04:25:00 AM 25.0242 -19.6048 30° Northeast  Level Estimated
Mon 04:26:00 AM 25.1320 -19.5354 30° Northeast  Level Estimated
Mon 04:27:00 AM 25.2398 -19.4659 30° Northeast  Level Estimated
Mon 04:28:00 AM 25.3477 -19.3963 30° Northeast  Level Estimated
Mon 04:29:00 AM 25.4554 -19.3265 30° Northeast  Level Estimated
Mon 04:30:00 AM 25.5632 -19.2567 30° Northeast  Level Estimated
Mon 04:31:00 AM 25.6709 -19.1867 30° Northeast  Level Estimated
Mon 04:32:00 AM 25.7785 -19.1166 30° Northeast  Level Estimated
Mon 04:33:00 AM 25.8862 -19.0463 30° Northeast  Level Estimated
Mon 04:34:00 AM 25.9937 -18.9759 30° Northeast  Level Estimated
Mon 04:35:00 AM 26.1013 -18.9054 30° Northeast  Level Estimated
Mon 04:36:00 AM 26.2089 -18.8348 31° Northeast  Level Estimated
Mon 04:37:00 AM 26.3164 -18.7640 31° Northeast  Level Estimated
Mon 04:38:00 AM 26.4238 -18.6931 31° Northeast  Level Estimated
Mon 04:39:00 AM 26.5312 -18.6221 31° Northeast  Level Estimated
Mon 04:40:00 AM 26.6386 -18.5509 31° Northeast  Level Estimated
Mon 04:41:00 AM 26.7460 -18.4796 31° Northeast  Level Estimated
Mon 04:42:00 AM 26.8533 -18.4082 31° Northeast  Level Estimated
Mon 04:43:00 AM 26.9606 -18.3366 31° Northeast  Level Estimated
Mon 04:44:00 AM 27.0679 -18.2649 31° Northeast  Level Estimated
Mon 04:45:00 AM 27.1751 -18.1931 31° Northeast  Level Estimated
Mon 04:46:00 AM 27.2822 -18.1211 31° Northeast  Level Estimated
Mon 04:47:00 AM 27.3894 -18.0490 31° Northeast  Level Estimated
Mon 04:48:00 AM 27.4965 -17.9767 31° Northeast  Level Estimated
Mon 04:49:00 AM 27.6035 -17.9043 31° Northeast  Level Estimated
Mon 04:50:00 AM 27.7106 -17.8318 31° Northeast  Level Estimated
Mon 04:51:00 AM 27.8176 -17.7591 31° Northeast  Level Estimated
Mon 04:52:00 AM 27.9245 -17.6863 31° Northeast  Level Estimated
Mon 04:53:00 AM 28.0314 -17.6133 31° Northeast  Level Estimated
Mon 04:54:00 AM 28.1383 -17.5402 31° Northeast  Level Estimated
Mon 04:55:00 AM 28.2451 -17.4669 31° Northeast  Level Estimated
Mon 04:56:00 AM 28.3519 -17.3935 31° Northeast  Level Estimated
Mon 04:57:00 AM 28.4587 -17.3200 31° Northeast  Level Estimated
Mon 04:58:00 AM 28.5654 -17.2462 31° Northeast  Level Estimated
Mon 04:59:00 AM 28.6721 -17.1724 31° Northeast  Level Estimated
Mon 05:00:00 AM 28.7787 -17.0984 31° Northeast  Level Estimated
Mon 05:01:00 AM 28.8853 -17.0242 31° Northeast  Level Estimated
Mon 05:02:00 AM 28.9919 -16.9499 31° Northeast  Level Estimated
Mon 05:03:00 AM 29.0984 -16.8754 31° Northeast  Level Estimated
Mon 05:04:00 AM 29.2049 -16.8008 31° Northeast  Level Estimated
Mon 05:05:00 AM 29.3113 -16.7260 31° Northeast  Level Estimated
Mon 05:06:00 AM 29.4177 -16.6511 32° Northeast  Level Estimated
Mon 05:07:00 AM 29.5240 -16.5760 32° Northeast  Level Estimated
Mon 05:08:00 AM 29.6303 -16.5008 32° Northeast  Level Estimated
Mon 05:09:00 AM 29.7366 -16.4254 32° Northeast  Level Estimated
Mon 05:10:00 AM 29.8428 -16.3498 32° Northeast  Level Estimated
Mon 05:11:00 AM 29.9490 -16.2741 32° Northeast  Level Estimated
Mon 05:12:00 AM 30.0551 -16.1982 32° Northeast  Level Estimated
Mon 05:13:00 AM 30.1612 -16.1222 32° Northeast  Level Estimated
Mon 05:14:00 AM 30.2673 -16.0460 32° Northeast  Level Estimated
Mon 05:15:00 AM 30.3733 -15.9696 32° Northeast  Level Estimated
Mon 05:16:00 AM 30.4792 -15.8931 32° Northeast  Level Estimated
Mon 05:17:00 AM 30.5851 -15.8163 32° Northeast  Level Estimated
Mon 05:18:00 AM 30.6910 -15.7395 32° Northeast  Level Estimated
Mon 05:19:00 AM 30.7968 -15.6624 32° Northeast  Level Estimated
Mon 05:20:00 AM 30.9026 -15.5852 32° Northeast  Level Estimated
Mon 05:21:00 AM 31.0083 -15.5078 32° Northeast  Level Estimated
Mon 05:22:00 AM 31.1140 -15.4302 32° Northeast  Level Estimated
Mon 05:23:00 AM 31.2197 -15.3525 32° Northeast  Level Estimated
Mon 05:24:00 AM 31.3253 -15.2746 32° Northeast  Level Estimated
Mon 05:25:00 AM 31.4308 -15.1965 32° Northeast  Level Estimated
Mon 05:26:00 AM 31.5363 -15.1183 32° Northeast  Level Estimated
Mon 05:27:00 AM 31.6417 -15.0398 32° Northeast  Level Estimated
Mon 05:28:00 AM 31.7471 -14.9612 32° Northeast  Level Estimated
Mon 05:29:00 AM 31.8525 -14.8824 32° Northeast  Level Estimated
Mon 05:30:00 AM 31.9578 -14.8035 32° Northeast  Level Estimated
Mon 05:31:00 AM 32.0630 -14.7243 33° Northeast  Level Estimated
Mon 05:32:00 AM 32.1683 -14.6450 33° Northeast  Level Estimated
Mon 05:33:00 AM 32.2734 -14.5655 33° Northeast  Level Estimated
Mon 05:34:00 AM 32.3785 -14.4858 33° Northeast  Level Estimated
Mon 05:35:00 AM 32.4836 -14.4059 33° Northeast  Level Estimated
Mon 05:36:00 AM 32.5886 -14.3258 33° Northeast  Level Estimated
Mon 05:37:00 AM 32.6935 -14.2456 33° Northeast  Level Estimated
Mon 05:38:00 AM 32.7984 -14.1651 33° Northeast  Level Estimated
Mon 05:39:00 AM 32.9033 -14.0845 33° Northeast  Level Estimated
Mon 05:40:00 AM 33.0081 -14.0036 33° Northeast  Level Estimated
Mon 05:41:00 AM 33.1128 -13.9226 33° Northeast  Level Estimated
Mon 05:42:00 AM 33.2175 -13.8414 33° Northeast  Level Estimated
Mon 05:43:00 AM 33.3222 -13.7600 33° Northeast  Level Estimated
Mon 05:44:00 AM 33.4268 -13.6784 33° Northeast  Level Estimated
Mon 05:45:00 AM 33.5313 -13.5966 33° Northeast  Level Estimated
Mon 05:46:00 AM 33.6358 -13.5146 33° Northeast  Level Estimated
Mon 05:47:00 AM 33.7402 -13.4324 33° Northeast  Level Estimated
Mon 05:48:00 AM 33.8446 -13.3500 33° Northeast  Level Estimated
Mon 05:49:00 AM 33.9489 -13.2674 33° Northeast  Level Estimated
Mon 05:50:00 AM 34.0531 -13.1846 33° Northeast  Level Estimated
Mon 05:51:00 AM 34.1573 -13.1016 33° Northeast  Level Estimated
Mon 05:52:00 AM 34.2615 -13.0183 33° Northeast  Level Estimated
Mon 05:53:00 AM 34.3656 -12.9349 33° Northeast  Level Estimated
Mon 05:54:00 AM 34.4696 -12.8513 34° Northeast  Level Estimated
Mon 05:55:00 AM 34.5736 -12.7675 34° Northeast  Level Estimated
Mon 05:56:00 AM 34.6775 -12.6834 34° Northeast  Level Estimated
Mon 05:57:00 AM 34.7814 -12.5991 34° Northeast  Level Estimated
Mon 05:58:00 AM 34.8852 -12.5147 34° Northeast  Level Estimated
Mon 05:59:00 AM 34.9889 -12.4300 34° Northeast  Level Estimated
Mon 06:00:00 AM 35.0926 -12.3451 34° Northeast  Level Estimated
Mon 06:01:00 AM 35.1963 -12.2600 34° Northeast  Level Estimated
Mon 06:02:00 AM 35.2998 -12.1746 34° Northeast  Level Estimated
Mon 06:03:00 AM 35.4034 -12.0891 34° Northeast  Level Estimated
Mon 06:04:00 AM 35.5068 -12.0033 34° Northeast  Level Estimated
Mon 06:05:00 AM 35.6102 -11.9173 34° Northeast  Level Estimated
Mon 06:06:00 AM 35.7135 -11.8311 34° Northeast  Level Estimated
Mon 06:07:00 AM 35.8168 -11.7447 34° Northeast  Level Estimated
Mon 06:08:00 AM 35.9200 -11.6580 34° Northeast  Level Estimated
Mon 06:09:00 AM 36.0231 -11.5711 34° Northeast  Level Estimated
Mon 06:10:00 AM 36.1262 -11.4840 34° Northeast  Level Estimated
Mon 06:11:00 AM 36.2292 -11.3967 34° Northeast  Level Estimated
Mon 06:12:00 AM 36.3322 -11.3091 34° Northeast  Level Estimated
Mon 06:13:00 AM 36.4351 -11.2213 34° Northeast  Level Estimated
Mon 06:14:00 AM 36.5379 -11.1332 35° Northeast  Level Estimated
Mon 06:15:00 AM 36.6406 -11.0449 35° Northeast  Level Estimated
Mon 06:16:00 AM 36.7433 -10.9564 35° Northeast  Level Estimated
Mon 06:17:00 AM 36.8460 -10.8677 35° Northeast  Level Estimated
Mon 06:18:00 AM 36.9485 -10.7787 35° Northeast  Level Estimated
Mon 06:19:00 AM 37.0510 -10.6895 35° Northeast  Level Estimated
Mon 06:20:00 AM 37.1534 -10.6000 35° Northeast  Level Estimated
Mon 06:21:00 AM 37.2558 -10.5103 35° Northeast  Level Estimated
Mon 06:22:00 AM 37.3581 -10.4203 35° Northeast  Level Estimated
Mon 06:23:00 AM 37.4603 -10.3301 35° Northeast  Level Estimated
Mon 06:24:00 AM 37.5625 -10.2397 35° Northeast  Level Estimated
Mon 06:25:00 AM 37.6646 -10.1490 35° Northeast  Level Estimated
Mon 06:26:00 AM 37.7666 -10.0580 35° Northeast  Level Estimated
Mon 06:27:00 AM 37.8685 -9.9668 35° Northeast  Level Estimated
Mon 06:28:00 AM 37.9704 -9.8754 35° Northeast  Level Estimated
Mon 06:29:00 AM 38.0722 -9.7837 35° Northeast  Level Estimated
Mon 06:30:00 AM 38.1739 -9.6917 35° Northeast  Level Estimated
Mon 06:31:00 AM 38.2756 -9.5995 35° Northeast  Level Estimated
Mon 06:32:00 AM 38.3772 -9.5070 36° Northeast  Level Estimated
Mon 06:33:00 AM 38.4787 -9.4143 36° Northeast  Level Estimated
Mon 06:34:00 AM 38.5802 -9.3213 36° Northeast  Level Estimated
Mon 06:35:00 AM 38.6815 -9.2281 36° Northeast  Level Estimated
Mon 06:36:00 AM 38.7813 -9.1359 36° Northeast  Level Estimated
Mon 06:37:00 AM 38.7813 -9.1359 38° Northeast  Level Estimated
Mon 06:38:00 AM 38.7813 -9.1359 38° Northeast  Level Estimated
Mon 06:39:00 AM 38.7813 -9.1359 38° Northeast  Level Estimated
Mon 06:40:00 AM 38.7813 -9.1359 38° Northeast  Level Estimated
Mon 06:41:00 AM 38.7813 -9.1359 38° Northeast  Level Estimated
Mon 06:42:00 AM 38.7813 -9.1359 38° Northeast  Level Estimated
Mon 06:43:00 AM 38.7813 -9.1359 38° Northeast  Level Estimated
Mon 06:44:00 AM 38.7813 -9.1359 38° Northeast  Level Estimated
Mon 06:45:00 AM 38.7813 -9.1359 38° Northeast  Level Estimated
Mon 06:46:00 AM 38.7813 -9.1359 38° Northeast  Level Estimated
Mon 06:47:00 AM 38.7813 -9.1359 38° Northeast  Level Estimated
Mon 06:48:00 AM 38.7813 -9.1359 38° Northeast  Level Estimated
Mon 06:49:00 AM 38.7813 -9.1359 38° Northeast  Level Estimated
Mon 06:50:00 AM 38.7813 -9.1359 38° Northeast  Level Estimated
Mon 06:51:00 AM 38.7813 -9.1359 38° Northeast  Level Estimated

Login

Don't have an account? Register now (free) for customized features, flight alerts, and more!